sensor_id;sensor_type;location;lat;lon;timestamp;P1;durP1;ratioP1;P2;durP2;ratioP2
52866;SDS011;38739;53.324;6.862;2023-03-11T00:00:30;13.55;;;3.42;;
52866;SDS011;38739;53.324;6.862;2023-03-11T00:02:59;9.40;;;1.75;;
52866;SDS011;38739;53.324;6.862;2023-03-11T00:05:35;10.18;;;1.70;;
52866;SDS011;38739;53.324;6.862;2023-03-11T00:08:03;11.45;;;1.60;;
52866;SDS011;38739;53.324;6.862;2023-03-11T00:10:36;10.15;;;1.48;;
52866;SDS011;38739;53.324;6.862;2023-03-11T00:13:04;9.60;;;1.40;;
52866;SDS011;38739;53.324;6.862;2023-03-11T00:15:30;9.25;;;1.45;;
52866;SDS011;38739;53.324;6.862;2023-03-11T00:17:57;12.40;;;1.50;;
52866;SDS011;38739;53.324;6.862;2023-03-11T00:20:24;7.88;;;1.08;;
52866;SDS011;38739;53.324;6.862;2023-03-11T00:22:52;6.38;;;0.88;;
52866;SDS011;38739;53.324;6.862;2023-03-11T00:25:18;5.10;;;0.98;;
52866;SDS011;38739;53.324;6.862;2023-03-11T00:27:44;6.32;;;0.90;;
52866;SDS011;38739;53.324;6.862;2023-03-11T00:30:10;4.50;;;0.88;;
52866;SDS011;38739;53.324;6.862;2023-03-11T00:32:37;5.18;;;0.90;;
52866;SDS011;38739;53.324;6.862;2023-03-11T00:35:03;6.35;;;1.05;;
52866;SDS011;38739;53.324;6.862;2023-03-11T00:37:29;6.78;;;0.93;;
52866;SDS011;38739;53.324;6.862;2023-03-11T00:39:55;4.25;;;0.68;;
52866;SDS011;38739;53.324;6.862;2023-03-11T00:42:21;6.00;;;0.75;;
52866;SDS011;38739;53.324;6.862;2023-03-11T00:44:46;6.25;;;0.80;;
52866;SDS011;38739;53.324;6.862;2023-03-11T00:47:12;4.95;;;0.88;;
52866;SDS011;38739;53.324;6.862;2023-03-11T00:49:38;4.68;;;1.08;;
52866;SDS011;38739;53.324;6.862;2023-03-11T00:52:04;5.13;;;0.80;;
52866;SDS011;38739;53.324;6.862;2023-03-11T00:54:30;6.90;;;0.88;;
52866;SDS011;38739;53.324;6.862;2023-03-11T00:56:59;6.45;;;0.80;;
52866;SDS011;38739;53.324;6.862;2023-03-11T00:59:24;6.30;;;1.10;;
52866;SDS011;38739;53.324;6.862;2023-03-11T01:01:50;3.92;;;0.90;;
52866;SDS011;38739;53.324;6.862;2023-03-11T01:04:16;7.82;;;1.10;;
52866;SDS011;38739;53.324;6.862;2023-03-11T01:06:42;6.88;;;0.85;;
52866;SDS011;38739;53.324;6.862;2023-03-11T01:09:08;4.20;;;0.90;;
52866;SDS011;38739;53.324;6.862;2023-03-11T01:11:34;4.97;;;0.82;;
52866;SDS011;38739;53.324;6.862;2023-03-11T01:14:00;5.97;;;1.15;;
52866;SDS011;38739;53.324;6.862;2023-03-11T01:16:28;5.45;;;1.00;;
52866;SDS011;38739;53.324;6.862;2023-03-11T01:18:54;7.13;;;0.73;;
52866;SDS011;38739;53.324;6.862;2023-03-11T01:21:20;5.15;;;1.10;;
52866;SDS011;38739;53.324;6.862;2023-03-11T01:23:45;5.20;;;0.90;;
52866;SDS011;38739;53.324;6.862;2023-03-11T01:26:11;5.75;;;0.70;;
52866;SDS011;38739;53.324;6.862;2023-03-11T01:28:37;4.72;;;0.77;;
52866;SDS011;38739;53.324;6.862;2023-03-11T01:31:03;5.72;;;0.85;;
52866;SDS011;38739;53.324;6.862;2023-03-11T01:33:28;2.83;;;0.93;;
52866;SDS011;38739;53.324;6.862;2023-03-11T01:35:54;6.35;;;1.08;;
52866;SDS011;38739;53.324;6.862;2023-03-11T01:38:20;2.88;;;0.50;;
52866;SDS011;38739;53.324;6.862;2023-03-11T01:40:47;7.93;;;0.90;;
52866;SDS011;38739;53.324;6.862;2023-03-11T01:48:39;6.03;;;0.63;;
52866;SDS011;38739;53.324;6.862;2023-03-11T01:51:06;3.35;;;0.50;;
52866;SDS011;38739;53.324;6.862;2023-03-11T01:53:32;4.78;;;0.85;;
52866;SDS011;38739;53.324;6.862;2023-03-11T01:55:58;7.35;;;0.80;;
52866;SDS011;38739;53.324;6.862;2023-03-11T01:58:27;4.07;;;0.75;;
52866;SDS011;38739;53.324;6.862;2023-03-11T02:00:58;6.13;;;0.70;;
52866;SDS011;38739;53.324;6.862;2023-03-11T02:03:26;5.38;;;0.98;;
52866;SDS011;38739;53.324;6.862;2023-03-11T02:08:25;2.67;;;0.70;;
52866;SDS011;38739;53.324;6.862;2023-03-11T02:10:52;4.10;;;0.90;;
52866;SDS011;38739;53.324;6.862;2023-03-11T02:13:18;3.35;;;0.60;;
52866;SDS011;38739;53.324;6.862;2023-03-11T02:15:44;5.07;;;0.80;;
52866;SDS011;38739;53.324;6.862;2023-03-11T02:18:11;3.33;;;0.60;;
52866;SDS011;38739;53.324;6.862;2023-03-11T02:23:27;5.03;;;0.85;;
52866;SDS011;38739;53.324;6.862;2023-03-11T02:26:12;2.55;;;0.70;;
52866;SDS011;38739;53.324;6.862;2023-03-11T02:28:47;4.55;;;0.60;;
52866;SDS011;38739;53.324;6.862;2023-03-11T02:31:16;4.50;;;0.75;;
52866;SDS011;38739;53.324;6.862;2023-03-11T02:33:43;5.57;;;0.70;;
52866;SDS011;38739;53.324;6.862;2023-03-11T02:39:14;4.32;;;0.60;;
52866;SDS011;38739;53.324;6.862;2023-03-11T02:41:42;5.18;;;0.77;;
52866;SDS011;38739;53.324;6.862;2023-03-11T02:44:10;6.95;;;0.75;;
52866;SDS011;38739;53.324;6.862;2023-03-11T02:46:38;3.08;;;0.60;;
52866;SDS011;38739;53.324;6.862;2023-03-11T02:49:05;3.33;;;0.60;;
52866;SDS011;38739;53.324;6.862;2023-03-11T02:51:31;4.43;;;0.70;;
52866;SDS011;38739;53.324;6.862;2023-03-11T02:54:01;3.17;;;0.80;;
52866;SDS011;38739;53.324;6.862;2023-03-11T02:56:28;4.30;;;0.70;;
52866;SDS011;38739;53.324;6.862;2023-03-11T02:58:54;3.42;;;0.60;;
52866;SDS011;38739;53.324;6.862;2023-03-11T03:01:20;5.18;;;1.00;;
52866;SDS011;38739;53.324;6.862;2023-03-11T03:03:45;7.90;;;0.70;;
52866;SDS011;38739;53.324;6.862;2023-03-11T03:06:11;5.57;;;0.93;;
52866;SDS011;38739;53.324;6.862;2023-03-11T03:08:37;4.25;;;0.80;;
52866;SDS011;38739;53.324;6.862;2023-03-11T03:11:03;6.80;;;0.80;;
52866;SDS011;38739;53.324;6.862;2023-03-11T03:13:32;2.78;;;0.80;;
52866;SDS011;38739;53.324;6.862;2023-03-11T03:16:03;3.17;;;0.70;;
52866;SDS011;38739;53.324;6.862;2023-03-11T03:18:29;4.47;;;1.00;;
52866;SDS011;38739;53.324;6.862;2023-03-11T03:20:57;5.63;;;0.75;;
52866;SDS011;38739;53.324;6.862;2023-03-11T03:23:23;6.47;;;0.90;;
52866;SDS011;38739;53.324;6.862;2023-03-11T03:25:49;4.40;;;0.80;;
52866;SDS011;38739;53.324;6.862;2023-03-11T03:28:15;3.42;;;0.52;;
52866;SDS011;38739;53.324;6.862;2023-03-11T03:30:40;9.40;;;1.25;;
52866;SDS011;38739;53.324;6.862;2023-03-11T03:33:06;3.97;;;0.63;;
52866;SDS011;38739;53.324;6.862;2023-03-11T03:35:32;6.80;;;1.00;;
52866;SDS011;38739;53.324;6.862;2023-03-11T03:38:01;5.30;;;0.93;;
52866;SDS011;38739;53.324;6.862;2023-03-11T03:40:29;5.30;;;0.90;;
52866;SDS011;38739;53.324;6.862;2023-03-11T03:42:55;3.50;;;0.90;;
52866;SDS011;38739;53.324;6.862;2023-03-11T03:45:21;8.73;;;1.10;;
52866;SDS011;38739;53.324;6.862;2023-03-11T03:47:46;3.65;;;0.88;;
52866;SDS011;38739;53.324;6.862;2023-03-11T03:50:12;2.08;;;0.98;;
52866;SDS011;38739;53.324;6.862;2023-03-11T03:52:38;3.03;;;0.90;;
52866;SDS011;38739;53.324;6.862;2023-03-11T03:55:04;5.45;;;0.93;;
52866;SDS011;38739;53.324;6.862;2023-03-11T03:57:33;5.60;;;1.00;;
52866;SDS011;38739;53.324;6.862;2023-03-11T03:59:59;4.68;;;1.35;;
52866;SDS011;38739;53.324;6.862;2023-03-11T04:02:24;5.30;;;1.10;;
52866;SDS011;38739;53.324;6.862;2023-03-11T04:04:50;5.35;;;1.13;;
52866;SDS011;38739;53.324;6.862;2023-03-11T04:07:19;4.95;;;1.00;;
52866;SDS011;38739;53.324;6.862;2023-03-11T04:09:44;8.40;;;1.45;;
52866;SDS011;38739;53.324;6.862;2023-03-11T04:12:12;3.80;;;0.88;;
52866;SDS011;38739;53.324;6.862;2023-03-11T04:14:41;7.50;;;0.88;;
52866;SDS011;38739;53.324;6.862;2023-03-11T04:17:11;9.07;;;1.13;;
52866;SDS011;38739;53.324;6.862;2023-03-11T04:19:38;4.43;;;0.70;;
52866;SDS011;38739;53.324;6.862;2023-03-11T04:22:04;6.63;;;1.15;;
52866;SDS011;38739;53.324;6.862;2023-03-11T04:24:30;7.72;;;0.90;;
52866;SDS011;38739;53.324;6.862;2023-03-11T04:26:56;5.63;;;1.00;;
52866;SDS011;38739;53.324;6.862;2023-03-11T04:29:24;6.40;;;1.05;;
52866;SDS011;38739;53.324;6.862;2023-03-11T04:31:50;5.75;;;0.70;;
52866;SDS011;38739;53.324;6.862;2023-03-11T04:34:16;6.40;;;0.88;;
52866;SDS011;38739;53.324;6.862;2023-03-11T04:36:44;4.65;;;1.00;;
52866;SDS011;38739;53.324;6.862;2023-03-11T04:39:10;5.32;;;0.98;;
52866;SDS011;38739;53.324;6.862;2023-03-11T04:41:36;4.60;;;0.80;;
52866;SDS011;38739;53.324;6.862;2023-03-11T04:44:01;6.03;;;0.80;;
52866;SDS011;38739;53.324;6.862;2023-03-11T04:46:27;3.47;;;0.90;;
52866;SDS011;38739;53.324;6.862;2023-03-11T04:48:53;6.47;;;0.90;;
52866;SDS011;38739;53.324;6.862;2023-03-11T04:51:18;6.78;;;1.10;;
52866;SDS011;38739;53.324;6.862;2023-03-11T04:53:44;4.63;;;0.77;;
52866;SDS011;38739;53.324;6.862;2023-03-11T04:56:10;6.18;;;1.10;;
52866;SDS011;38739;53.324;6.862;2023-03-11T04:58:36;5.82;;;1.10;;
52866;SDS011;38739;53.324;6.862;2023-03-11T05:01:01;5.75;;;0.70;;
52866;SDS011;38739;53.324;6.862;2023-03-11T05:03:27;7.72;;;1.00;;
52866;SDS011;38739;53.324;6.862;2023-03-11T05:05:53;4.63;;;0.98;;
52866;SDS011;38739;53.324;6.862;2023-03-11T05:08:21;7.35;;;0.90;;
52866;SDS011;38739;53.324;6.862;2023-03-11T05:10:48;5.10;;;1.27;;
52866;SDS011;38739;53.324;6.862;2023-03-11T05:13:18;7.05;;;1.10;;
52866;SDS011;38739;53.324;6.862;2023-03-11T05:15:44;6.13;;;1.05;;
52866;SDS011;38739;53.324;6.862;2023-03-11T05:18:11;5.13;;;1.08;;
52866;SDS011;38739;53.324;6.862;2023-03-11T05:20:37;8.25;;;1.10;;
52866;SDS011;38739;53.324;6.862;2023-03-11T05:23:03;5.45;;;0.90;;
52866;SDS011;38739;53.324;6.862;2023-03-11T05:25:29;5.60;;;1.05;;
52866;SDS011;38739;53.324;6.862;2023-03-11T05:27:55;6.90;;;0.98;;
52866;SDS011;38739;53.324;6.862;2023-03-11T05:30:24;8.52;;;1.38;;
52866;SDS011;38739;53.324;6.862;2023-03-11T05:32:49;7.32;;;1.10;;
52866;SDS011;38739;53.324;6.862;2023-03-11T05:35:15;4.32;;;1.00;;
52866;SDS011;38739;53.324;6.862;2023-03-11T05:37:41;10.20;;;1.20;;
52866;SDS011;38739;53.324;6.862;2023-03-11T05:40:08;3.75;;;1.00;;
52866;SDS011;38739;53.324;6.862;2023-03-11T05:42:36;4.55;;;1.20;;
52866;SDS011;38739;53.324;6.862;2023-03-11T05:45:02;5.15;;;0.98;;
52866;SDS011;38739;53.324;6.862;2023-03-11T05:47:27;7.85;;;1.48;;
52866;SDS011;38739;53.324;6.862;2023-03-11T05:49:56;4.68;;;1.13;;
52866;SDS011;38739;53.324;6.862;2023-03-11T05:52:22;10.85;;;1.40;;
52866;SDS011;38739;53.324;6.862;2023-03-11T05:54:48;6.20;;;1.10;;
52866;SDS011;38739;53.324;6.862;2023-03-11T05:57:15;5.13;;;1.38;;
52866;SDS011;38739;53.324;6.862;2023-03-11T05:59:42;8.40;;;1.38;;
52866;SDS011;38739;53.324;6.862;2023-03-11T06:02:07;7.18;;;1.45;;
52866;SDS011;38739;53.324;6.862;2023-03-11T06:04:33;7.30;;;1.15;;
52866;SDS011;38739;53.324;6.862;2023-03-11T06:06:59;4.75;;;1.10;;
52866;SDS011;38739;53.324;6.862;2023-03-11T06:09:24;8.98;;;1.30;;
52866;SDS011;38739;53.324;6.862;2023-03-11T06:11:50;12.35;;;4.10;;
52866;SDS011;38739;53.324;6.862;2023-03-11T06:14:16;5.57;;;1.52;;
52866;SDS011;38739;53.324;6.862;2023-03-11T06:16:42;7.82;;;1.50;;
52866;SDS011;38739;53.324;6.862;2023-03-11T06:19:08;3.70;;;1.25;;
52866;SDS011;38739;53.324;6.862;2023-03-11T06:21:37;8.10;;;1.50;;
52866;SDS011;38739;53.324;6.862;2023-03-11T06:24:03;7.30;;;1.45;;
52866;SDS011;38739;53.324;6.862;2023-03-11T06:26:29;3.83;;;1.20;;
52866;SDS011;38739;53.324;6.862;2023-03-11T06:28:57;2.85;;;1.13;;
52866;SDS011;38739;53.324;6.862;2023-03-11T06:31:24;7.88;;;1.73;;
52866;SDS011;38739;53.324;6.862;2023-03-11T06:33:53;7.38;;;1.95;;
52866;SDS011;38739;53.324;6.862;2023-03-11T06:36:23;6.82;;;2.60;;
52866;SDS011;38739;53.324;6.862;2023-03-11T06:38:53;6.72;;;2.40;;
52866;SDS011;38739;53.324;6.862;2023-03-11T06:41:18;10.98;;;5.20;;
52866;SDS011;38739;53.324;6.862;2023-03-11T06:43:44;15.95;;;4.85;;
52866;SDS011;38739;53.324;6.862;2023-03-11T06:46:17;9.23;;;3.55;;
52866;SDS011;38739;53.324;6.862;2023-03-11T06:48:44;8.40;;;2.72;;
52866;SDS011;38739;53.324;6.862;2023-03-11T06:51:16;7.03;;;2.33;;
52866;SDS011;38739;53.324;6.862;2023-03-11T06:53:42;7.28;;;2.28;;
52866;SDS011;38739;53.324;6.862;2023-03-11T06:56:12;5.63;;;2.28;;
52866;SDS011;38739;53.324;6.862;2023-03-11T06:58:39;6.60;;;1.85;;
52866;SDS011;38739;53.324;6.862;2023-03-11T07:01:06;6.20;;;1.63;;
52866;SDS011;38739;53.324;6.862;2023-03-11T07:03:36;6.53;;;2.20;;
52866;SDS011;38739;53.324;6.862;2023-03-11T07:06:06;6.63;;;2.38;;
52866;SDS011;38739;53.324;6.862;2023-03-11T07:08:36;9.85;;;2.45;;
52866;SDS011;38739;53.324;6.862;2023-03-11T07:11:03;7.97;;;2.20;;
52866;SDS011;38739;53.324;6.862;2023-03-11T07:13:31;9.00;;;2.30;;
52866;SDS011;38739;53.324;6.862;2023-03-11T07:15:58;7.38;;;2.40;;
52866;SDS011;38739;53.324;6.862;2023-03-11T07:18:28;11.48;;;2.70;;
52866;SDS011;38739;53.324;6.862;2023-03-11T07:20:54;5.13;;;1.65;;
52866;SDS011;38739;53.324;6.862;2023-03-11T07:23:20;7.65;;;2.05;;
52866;SDS011;38739;53.324;6.862;2023-03-11T07:25:46;8.55;;;1.95;;
52866;SDS011;38739;53.324;6.862;2023-03-11T07:28:12;9.00;;;2.13;;
52866;SDS011;38739;53.324;6.862;2023-03-11T07:30:38;6.22;;;1.67;;
52866;SDS011;38739;53.324;6.862;2023-03-11T07:33:04;5.88;;;1.63;;
52866;SDS011;38739;53.324;6.862;2023-03-11T07:35:30;3.85;;;1.55;;
52866;SDS011;38739;53.324;6.862;2023-03-11T07:37:56;8.90;;;1.90;;
52866;SDS011;38739;53.324;6.862;2023-03-11T07:40:21;5.47;;;1.40;;
52866;SDS011;38739;53.324;6.862;2023-03-11T07:42:50;9.15;;;1.63;;
52866;SDS011;38739;53.324;6.862;2023-03-11T07:45:15;5.78;;;1.70;;
52866;SDS011;38739;53.324;6.862;2023-03-11T07:47:41;11.05;;;2.63;;
52866;SDS011;38739;53.324;6.862;2023-03-11T07:50:07;6.97;;;1.30;;
52866;SDS011;38739;53.324;6.862;2023-03-11T07:52:33;9.38;;;1.70;;
52866;SDS011;38739;53.324;6.862;2023-03-11T07:54:58;6.57;;;1.60;;
52866;SDS011;38739;53.324;6.862;2023-03-11T07:57:24;6.00;;;1.73;;
52866;SDS011;38739;53.324;6.862;2023-03-11T07:59:50;6.00;;;1.73;;
52866;SDS011;38739;53.324;6.862;2023-03-11T08:02:15;7.22;;;1.40;;
52866;SDS011;38739;53.324;6.862;2023-03-11T08:04:41;6.55;;;1.40;;
52866;SDS011;38739;53.324;6.862;2023-03-11T08:07:07;6.97;;;1.70;;
52866;SDS011;38739;53.324;6.862;2023-03-11T08:09:35;8.18;;;1.75;;
52866;SDS011;38739;53.324;6.862;2023-03-11T08:12:01;7.53;;;1.33;;
52866;SDS011;38739;53.324;6.862;2023-03-11T08:14:27;4.68;;;1.33;;
52866;SDS011;38739;53.324;6.862;2023-03-11T08:16:55;5.97;;;1.20;;
52866;SDS011;38739;53.324;6.862;2023-03-11T08:19:21;5.57;;;1.48;;
52866;SDS011;38739;53.324;6.862;2023-03-11T08:21:46;8.80;;;1.40;;
52866;SDS011;38739;53.324;6.862;2023-03-11T08:24:13;5.13;;;1.20;;
52866;SDS011;38739;53.324;6.862;2023-03-11T08:26:39;6.38;;;1.52;;
52866;SDS011;38739;53.324;6.862;2023-03-11T08:29:05;4.55;;;1.48;;
52866;SDS011;38739;53.324;6.862;2023-03-11T08:31:32;8.23;;;1.85;;
52866;SDS011;38739;53.324;6.862;2023-03-11T08:34:00;6.25;;;1.40;;
52866;SDS011;38739;53.324;6.862;2023-03-11T08:36:30;4.78;;;1.83;;
52866;SDS011;38739;53.324;6.862;2023-03-11T08:38:57;8.48;;;1.50;;
52866;SDS011;38739;53.324;6.862;2023-03-11T08:41:23;5.15;;;1.40;;
52866;SDS011;38739;53.324;6.862;2023-03-11T08:43:49;5.70;;;1.30;;
52866;SDS011;38739;53.324;6.862;2023-03-11T08:48:55;5.90;;;1.10;;
52866;SDS011;38739;53.324;6.862;2023-03-11T08:51:25;5.07;;;1.20;;
52866;SDS011;38739;53.324;6.862;2023-03-11T08:53:52;4.22;;;1.40;;
52866;SDS011;38739;53.324;6.862;2023-03-11T08:56:17;9.35;;;1.70;;
52866;SDS011;38739;53.324;6.862;2023-03-11T08:58:44;9.25;;;1.52;;
52866;SDS011;38739;53.324;6.862;2023-03-11T09:01:10;6.45;;;1.45;;
52866;SDS011;38739;53.324;6.862;2023-03-11T09:03:37;4.30;;;1.38;;
52866;SDS011;38739;53.324;6.862;2023-03-11T09:06:04;12.48;;;1.80;;
52866;SDS011;38739;53.324;6.862;2023-03-11T09:08:32;6.43;;;1.30;;
52866;SDS011;38739;53.324;6.862;2023-03-11T09:10:58;5.53;;;1.42;;
52866;SDS011;38739;53.324;6.862;2023-03-11T09:13:24;4.90;;;1.30;;
52866;SDS011;38739;53.324;6.862;2023-03-11T09:15:50;4.47;;;1.20;;
52866;SDS011;38739;53.324;6.862;2023-03-11T09:18:16;6.50;;;1.27;;
52866;SDS011;38739;53.324;6.862;2023-03-11T09:20:45;8.20;;;1.23;;
52866;SDS011;38739;53.324;6.862;2023-03-11T09:23:11;4.60;;;1.58;;
52866;SDS011;38739;53.324;6.862;2023-03-11T09:25:41;7.13;;;1.20;;
52866;SDS011;38739;53.324;6.862;2023-03-11T09:28:07;6.80;;;1.40;;
52866;SDS011;38739;53.324;6.862;2023-03-11T09:30:33;4.15;;;1.02;;
52866;SDS011;38739;53.324;6.862;2023-03-11T09:32:59;7.43;;;1.45;;
52866;SDS011;38739;53.324;6.862;2023-03-11T09:35:25;5.05;;;1.30;;
52866;SDS011;38739;53.324;6.862;2023-03-11T09:37:51;4.90;;;1.30;;
52866;SDS011;38739;53.324;6.862;2023-03-11T09:40:21;6.40;;;1.50;;
52866;SDS011;38739;53.324;6.862;2023-03-11T09:42:56;9.40;;;1.70;;
52866;SDS011;38739;53.324;6.862;2023-03-11T09:51:32;6.82;;;1.40;;
52866;SDS011;38739;53.324;6.862;2023-03-11T09:54:10;6.15;;;1.40;;
52866;SDS011;38739;53.324;6.862;2023-03-11T09:56:37;6.25;;;1.55;;
52866;SDS011;38739;53.324;6.862;2023-03-11T09:59:07;6.95;;;1.40;;
52866;SDS011;38739;53.324;6.862;2023-03-11T10:01:40;4.97;;;1.50;;
52866;SDS011;38739;53.324;6.862;2023-03-11T10:06:54;6.63;;;1.17;;
52866;SDS011;38739;53.324;6.862;2023-03-11T10:09:27;11.00;;;1.70;;
52866;SDS011;38739;53.324;6.862;2023-03-11T10:25:17;5.15;;;1.20;;
52866;SDS011;38739;53.324;6.862;2023-03-11T10:27:49;7.28;;;1.27;;
52866;SDS011;38739;53.324;6.862;2023-03-11T10:30:26;6.60;;;1.60;;
52866;SDS011;38739;53.324;6.862;2023-03-11T10:32:57;6.10;;;1.33;;
52866;SDS011;38739;53.324;6.862;2023-03-11T10:35:40;7.15;;;1.45;;
52866;SDS011;38739;53.324;6.862;2023-03-11T10:40:48;5.75;;;1.45;;
52866;SDS011;38739;53.324;6.862;2023-03-11T10:43:20;6.57;;;1.55;;
52866;SDS011;38739;53.324;6.862;2023-03-11T10:45:56;7.97;;;1.63;;
52866;SDS011;38739;53.324;6.862;2023-03-11T10:48:23;7.28;;;2.00;;
52866;SDS011;38739;53.324;6.862;2023-03-11T10:50:56;4.38;;;1.45;;
52866;SDS011;38739;53.324;6.862;2023-03-11T10:53:27;2.85;;;1.27;;
52866;SDS011;38739;53.324;6.862;2023-03-11T10:55:53;5.03;;;1.50;;
52866;SDS011;38739;53.324;6.862;2023-03-11T10:58:22;4.60;;;1.05;;
52866;SDS011;38739;53.324;6.862;2023-03-11T11:00:58;7.13;;;1.10;;
52866;SDS011;38739;53.324;6.862;2023-03-11T11:03:24;4.80;;;1.10;;
52866;SDS011;38739;53.324;6.862;2023-03-11T11:06:05;4.35;;;1.10;;
52866;SDS011;38739;53.324;6.862;2023-03-11T11:09:15;4.13;;;1.00;;
52866;SDS011;38739;53.324;6.862;2023-03-11T11:14:42;3.95;;;1.17;;
52866;SDS011;38739;53.324;6.862;2023-03-11T11:17:29;7.15;;;1.75;;
52866;SDS011;38739;53.324;6.862;2023-03-11T11:19:58;4.18;;;1.08;;
52866;SDS011;38739;53.324;6.862;2023-03-11T11:22:37;7.13;;;1.45;;
52866;SDS011;38739;53.324;6.862;2023-03-11T11:25:28;3.63;;;1.38;;
52866;SDS011;38739;53.324;6.862;2023-03-11T11:28:23;5.07;;;1.15;;
52866;SDS011;38739;53.324;6.862;2023-03-11T11:33:26;5.85;;;0.98;;
52866;SDS011;38739;53.324;6.862;2023-03-11T11:35:53;4.32;;;1.10;;
52866;SDS011;38739;53.324;6.862;2023-03-11T11:38:21;9.30;;;1.20;;
52866;SDS011;38739;53.324;6.862;2023-03-11T11:40:49;6.15;;;0.93;;
52866;SDS011;38739;53.324;6.862;2023-03-11T11:43:17;4.18;;;0.90;;
52866;SDS011;38739;53.324;6.862;2023-03-11T11:45:56;6.75;;;1.20;;
52866;SDS011;38739;53.324;6.862;2023-03-11T11:51:02;7.93;;;1.00;;
52866;SDS011;38739;53.324;6.862;2023-03-11T11:53:41;4.72;;;0.90;;
52866;SDS011;38739;53.324;6.862;2023-03-11T11:56:11;2.15;;;0.70;;
52866;SDS011;38739;53.324;6.862;2023-03-11T11:58:37;2.35;;;0.90;;
52866;SDS011;38739;53.324;6.862;2023-03-11T12:06:24;3.78;;;0.98;;
52866;SDS011;38739;53.324;6.862;2023-03-11T12:17:41;3.35;;;0.90;;
52866;SDS011;38739;53.324;6.862;2023-03-11T12:20:16;5.65;;;1.08;;
52866;SDS011;38739;53.324;6.862;2023-03-11T12:31:04;3.08;;;1.10;;
52866;SDS011;38739;53.324;6.862;2023-03-11T12:36:04;5.30;;;1.15;;
52866;SDS011;38739;53.324;6.862;2023-03-11T12:38:32;4.40;;;1.10;;
52866;SDS011;38739;53.324;6.862;2023-03-11T12:41:34;5.10;;;1.08;;
52866;SDS011;38739;53.324;6.862;2023-03-11T13:05:27;3.40;;;1.10;;
52866;SDS011;38739;53.324;6.862;2023-03-11T13:08:21;4.05;;;1.13;;
52866;SDS011;38739;53.324;6.862;2023-03-11T13:10:53;4.25;;;0.90;;
52866;SDS011;38739;53.324;6.862;2023-03-11T13:15:53;4.35;;;0.90;;
52866;SDS011;38739;53.324;6.862;2023-03-11T13:18:29;4.45;;;1.00;;
52866;SDS011;38739;53.324;6.862;2023-03-11T13:21:00;2.20;;;0.80;;
52866;SDS011;38739;53.324;6.862;2023-03-11T13:28:53;2.97;;;1.00;;
52866;SDS011;38739;53.324;6.862;2023-03-11T13:32:00;4.30;;;1.10;;
52866;SDS011;38739;53.324;6.862;2023-03-11T13:42:59;5.18;;;1.00;;
52866;SDS011;38739;53.324;6.862;2023-03-11T13:45:34;3.08;;;1.20;;
52866;SDS011;38739;53.324;6.862;2023-03-11T13:48:25;4.97;;;1.33;;
52866;SDS011;38739;53.324;6.862;2023-03-11T13:51:05;2.67;;;1.17;;
52866;SDS011;38739;53.324;6.862;2023-03-11T13:53:39;4.10;;;0.80;;
52866;SDS011;38739;53.324;6.862;2023-03-11T13:56:16;3.20;;;0.80;;
52866;SDS011;38739;53.324;6.862;2023-03-11T13:59:14;5.47;;;0.98;;
52866;SDS011;38739;53.324;6.862;2023-03-11T14:01:51;4.85;;;0.80;;
52866;SDS011;38739;53.324;6.862;2023-03-11T14:04:31;4.75;;;0.98;;
52866;SDS011;38739;53.324;6.862;2023-03-11T14:13:04;3.53;;;0.80;;
52866;SDS011;38739;53.324;6.862;2023-03-11T14:15:51;4.10;;;0.73;;
52866;SDS011;38739;53.324;6.862;2023-03-11T14:18:34;2.42;;;1.05;;
52866;SDS011;38739;53.324;6.862;2023-03-11T14:23:39;2.65;;;0.75;;
52866;SDS011;38739;53.324;6.862;2023-03-11T14:26:16;6.80;;;0.95;;
52866;SDS011;38739;53.324;6.862;2023-03-11T14:28:44;1.95;;;0.80;;
52866;SDS011;38739;53.324;6.862;2023-03-11T14:31:46;3.28;;;0.73;;
52866;SDS011;38739;53.324;6.862;2023-03-11T14:36:47;3.28;;;0.80;;
52866;SDS011;38739;53.324;6.862;2023-03-11T14:39:37;10.00;;;1.10;;
52866;SDS011;38739;53.324;6.862;2023-03-11T14:44:33;5.80;;;0.80;;
52866;SDS011;38739;53.324;6.862;2023-03-11T14:47:05;3.50;;;0.80;;
52866;SDS011;38739;53.324;6.862;2023-03-11T14:49:35;4.93;;;0.77;;
52866;SDS011;38739;53.324;6.862;2023-03-11T14:52:07;3.85;;;0.70;;
52866;SDS011;38739;53.324;6.862;2023-03-11T14:54:39;4.05;;;0.90;;
52866;SDS011;38739;53.324;6.862;2023-03-11T14:57:10;4.40;;;0.98;;
52866;SDS011;38739;53.324;6.862;2023-03-11T14:59:39;2.65;;;0.60;;
52866;SDS011;38739;53.324;6.862;2023-03-11T15:05:17;2.33;;;0.70;;
52866;SDS011;38739;53.324;6.862;2023-03-11T15:07:50;3.35;;;0.68;;
52866;SDS011;38739;53.324;6.862;2023-03-11T15:10:23;4.43;;;0.82;;
52866;SDS011;38739;53.324;6.862;2023-03-11T15:12:49;2.83;;;0.95;;
52866;SDS011;38739;53.324;6.862;2023-03-11T15:15:27;4.03;;;0.93;;
52866;SDS011;38739;53.324;6.862;2023-03-11T15:17:54;5.05;;;1.00;;
52866;SDS011;38739;53.324;6.862;2023-03-11T15:20:34;4.68;;;0.90;;
52866;SDS011;38739;53.324;6.862;2023-03-11T15:23:02;2.38;;;0.63;;
52866;SDS011;38739;53.324;6.862;2023-03-11T15:25:36;5.18;;;0.80;;
52866;SDS011;38739;53.324;6.862;2023-03-11T15:28:24;3.90;;;0.68;;
52866;SDS011;38739;53.324;6.862;2023-03-11T15:33:38;5.63;;;1.10;;
52866;SDS011;38739;53.324;6.862;2023-03-11T15:36:05;4.88;;;1.40;;
52866;SDS011;38739;53.324;6.862;2023-03-11T15:39:05;6.07;;;1.30;;
52866;SDS011;38739;53.324;6.862;2023-03-11T15:41:38;3.67;;;0.90;;
52866;SDS011;38739;53.324;6.862;2023-03-11T15:44:20;2.05;;;0.70;;
52866;SDS011;38739;53.324;6.862;2023-03-11T15:46:46;4.55;;;0.50;;
52866;SDS011;38739;53.324;6.862;2023-03-11T15:49:15;3.47;;;0.80;;
52866;SDS011;38739;53.324;6.862;2023-03-11T15:51:43;3.88;;;1.05;;
52866;SDS011;38739;53.324;6.862;2023-03-11T15:54:09;2.85;;;0.70;;
52866;SDS011;38739;53.324;6.862;2023-03-11T15:56:34;3.47;;;0.63;;
52866;SDS011;38739;53.324;6.862;2023-03-11T15:59:00;3.10;;;0.80;;
52866;SDS011;38739;53.324;6.862;2023-03-11T16:01:26;4.07;;;0.98;;
52866;SDS011;38739;53.324;6.862;2023-03-11T16:03:54;3.47;;;0.70;;
52866;SDS011;38739;53.324;6.862;2023-03-11T16:06:19;3.97;;;0.90;;
52866;SDS011;38739;53.324;6.862;2023-03-11T16:08:48;3.03;;;0.90;;
52866;SDS011;38739;53.324;6.862;2023-03-11T16:11:14;4.68;;;0.90;;
52866;SDS011;38739;53.324;6.862;2023-03-11T16:13:42;3.55;;;1.05;;
52866;SDS011;38739;53.324;6.862;2023-03-11T16:16:15;4.10;;;1.17;;
52866;SDS011;38739;53.324;6.862;2023-03-11T16:18:41;6.40;;;1.30;;
52866;SDS011;38739;53.324;6.862;2023-03-11T16:21:08;5.47;;;1.60;;
52866;SDS011;38739;53.324;6.862;2023-03-11T16:26:08;6.68;;;1.85;;
52866;SDS011;38739;53.324;6.862;2023-03-11T16:28:35;7.65;;;1.27;;
52866;SDS011;38739;53.324;6.862;2023-03-11T16:31:02;3.72;;;1.00;;
52866;SDS011;38739;53.324;6.862;2023-03-11T16:33:28;4.18;;;1.40;;
52866;SDS011;38739;53.324;6.862;2023-03-11T16:35:54;4.75;;;1.30;;
52866;SDS011;38739;53.324;6.862;2023-03-11T16:38:19;6.20;;;1.60;;
52866;SDS011;38739;53.324;6.862;2023-03-11T16:40:55;4.88;;;1.55;;
52866;SDS011;38739;53.324;6.862;2023-03-11T16:43:28;5.00;;;1.30;;
52866;SDS011;38739;53.324;6.862;2023-03-11T16:45:54;4.18;;;1.60;;
52866;SDS011;38739;53.324;6.862;2023-03-11T16:48:21;3.60;;;1.48;;
52866;SDS011;38739;53.324;6.862;2023-03-11T16:50:47;6.70;;;1.77;;
52866;SDS011;38739;53.324;6.862;2023-03-11T16:53:15;4.43;;;1.77;;
52866;SDS011;38739;53.324;6.862;2023-03-11T16:55:45;3.92;;;2.13;;
52866;SDS011;38739;53.324;6.862;2023-03-11T16:58:12;6.28;;;2.20;;
52866;SDS011;38739;53.324;6.862;2023-03-11T17:00:38;4.13;;;1.70;;
52866;SDS011;38739;53.324;6.862;2023-03-11T17:03:06;4.85;;;1.70;;
52866;SDS011;38739;53.324;6.862;2023-03-11T17:05:32;3.83;;;1.45;;
52866;SDS011;38739;53.324;6.862;2023-03-11T17:07:58;3.40;;;1.48;;
52866;SDS011;38739;53.324;6.862;2023-03-11T17:10:28;3.92;;;1.25;;
52866;SDS011;38739;53.324;6.862;2023-03-11T17:13:02;3.35;;;1.30;;